Time;durP1;ratioP1;P1;durP2;ratioP2;P2;SDS_P1;SDS_P2;PMS_P1;PMS_P2;Temp;Humidity;BMP_temperature;BMP_pressure;BME280_temperature;BME280_humidity;BME280_pressure;Samples;Min_cycle;Max_cycle;Signal;HPM_P1;HPM_P2
2021/12/03 00:00:02;;;;;;;21.17;8.68;;;;;;;0.03;81.22;97269.28;5041468;28;20049;-73
2021/12/03 00:02:31;;;;;;;15.75;7.72;;;;;;;0.04;81.28;97281.66;5044438;28;20045;-72
2021/12/03 00:04:57;;;;;;;18.85;9.02;;;;;;;0.09;81.19;97287.00;5040024;28;20456;-73
2021/12/03 00:07:24;;;;;;;20.23;9.00;;;;;;;0.11;81.00;97284.88;5041972;28;20140;-73
2021/12/03 00:09:50;;;;;;;17.35;9.13;;;;;;;0.14;81.03;97276.25;5039567;28;20057;-72
2021/12/03 00:12:17;;;;;;;21.67;8.73;;;;;;;0.11;81.06;97262.56;5042524;28;20053;-73
2021/12/03 00:14:43;;;;;;;19.02;9.10;;;;;;;0.11;81.14;97268.75;5037291;28;20049;-72
2021/12/03 00:17:09;;;;;;;20.92;9.40;;;;;;;0.11;81.23;97266.06;5052215;28;20134;-73
2021/12/03 00:19:35;;;;;;;23.30;9.50;;;;;;;0.09;81.05;97268.22;5043002;28;20098;-74
2021/12/03 00:22:01;;;;;;;18.27;9.55;;;;;;;0.11;81.08;97271.44;5023155;28;20139;-74
2021/12/03 00:24:29;;;;;;;18.45;9.10;;;;;;;0.12;81.06;97261.50;5041920;28;20049;-74
2021/12/03 00:26:54;;;;;;;19.10;9.45;;;;;;;0.16;81.17;97292.13;5042713;28;20049;-74
2021/12/03 00:29:22;;;;;;;21.90;9.68;;;;;;;0.17;81.25;97285.69;5057525;28;20044;-74
2021/12/03 00:31:48;;;;;;;24.25;10.30;;;;;;;0.11;81.18;97252.63;5034039;28;20048;-72
2021/12/03 00:34:14;;;;;;;19.75;9.52;;;;;;;0.17;81.16;97274.13;5044558;28;20345;-70
2021/12/03 00:36:40;;;;;;;19.95;10.43;;;;;;;0.14;81.46;97265.50;5038435;28;20037;-73
2021/12/03 00:39:06;;;;;;;23.80;10.52;;;;;;;0.17;81.23;97277.63;5054104;28;20053;-73
2021/12/03 00:41:40;;;;;;;20.42;10.57;;;;;;;0.18;81.35;97273.06;5039738;28;20033;-73
2021/12/03 00:44:06;;;;;;;19.98;9.52;;;;;;;0.19;81.36;97251.28;5042164;28;20149;-74
2021/12/03 00:46:33;;;;;;;20.90;9.50;;;;;;;0.14;81.32;97270.09;5030892;28;20073;-74
2021/12/03 00:48:59;;;;;;;23.05;11.05;;;;;;;0.17;81.52;97274.94;5042859;28;20036;-71
2021/12/03 00:51:26;;;;;;;21.63;9.88;;;;;;;0.12;81.52;97256.91;5043339;28;20056;-73
2021/12/03 00:53:52;;;;;;;25.20;11.65;;;;;;;0.23;81.66;97286.50;5043375;28;20052;-74
2021/12/03 00:56:18;;;;;;;31.95;11.27;;;;;;;0.21;81.59;97280.59;5040621;28;20068;-73
2021/12/03 00:58:44;;;;;;;25.30;11.18;;;;;;;0.25;81.56;97285.16;5040061;28;20096;-73
2021/12/03 01:01:10;;;;;;;24.15;10.65;;;;;;;0.27;81.55;97303.69;5037620;28;20442;-72
2021/12/03 01:03:39;;;;;;;25.77;11.95;;;;;;;0.25;81.67;97273.59;5027818;28;20053;-73
2021/12/03 01:06:05;;;;;;;24.23;11.73;;;;;;;0.30;81.50;97287.00;5043236;28;20394;-72
2021/12/03 01:08:31;;;;;;;24.95;11.35;;;;;;;0.30;81.59;97296.97;5034555;28;20414;-70
2021/12/03 01:10:57;;;;;;;28.60;11.65;;;;;;;0.33;81.42;97286.50;5037771;28;20056;-71
2021/12/03 01:13:23;;;;;;;24.55;11.07;;;;;;;0.34;81.52;97296.19;5034430;28;20124;-70
2021/12/03 01:15:50;;;;;;;26.65;11.38;;;;;;;0.40;81.36;97283.53;5057837;28;20140;-70
2021/12/03 01:18:16;;;;;;;25.13;11.85;;;;;;;0.41;81.13;97277.09;5038004;28;20049;-71
2021/12/03 01:20:44;;;;;;;31.70;12.00;;;;;;;0.40;81.11;97278.16;5045188;28;20045;-71
2021/12/03 01:23:12;;;;;;;28.08;12.77;;;;;;;0.44;81.19;97295.38;5040299;28;20056;-71
2021/12/03 01:25:38;;;;;;;25.33;11.80;;;;;;;0.43;81.12;97280.31;5041255;28;20057;-70
2021/12/03 01:28:04;;;;;;;26.80;12.10;;;;;;;0.50;81.01;97299.66;5060093;28;20045;-71
2021/12/03 01:30:31;;;;;;;27.42;12.50;;;;;;;0.55;80.87;97306.91;5058523;28;20099;-70
2021/12/03 01:32:59;;;;;;;31.13;12.52;;;;;;;0.50;80.80;97309.63;5039818;28;20575;-70
2021/12/03 01:35:28;;;;;;;32.47;13.00;;;;;;;0.51;80.95;97305.84;5028338;28;20052;-70
2021/12/03 01:37:56;;;;;;;31.92;12.15;;;;;;;0.53;80.48;97288.34;5045956;28;20037;-70
2021/12/03 01:40:24;;;;;;;27.40;13.25;;;;;;;0.51;80.91;97305.84;5032711;28;20452;-71
2021/12/03 01:42:50;;;;;;;29.15;13.15;;;;;;;0.56;80.82;97313.91;5057091;28;20052;-70
2021/12/03 01:45:22;;;;;;;29.27;13.77;;;;;;;0.53;80.75;97317.94;5042705;28;20081;-71
2021/12/03 01:47:50;;;;;;;31.08;14.23;;;;;;;0.55;80.94;97331.13;5052555;28;20137;-71
2021/12/03 01:50:16;;;;;;;;;;;;;;;0.58;80.82;97324.41;5020480;28;20057;-71
2021/12/03 01:52:42;;;;;;;31.50;13.90;;;;;;;0.54;80.57;97316.84;5041805;28;19944;-71
2021/12/03 01:55:13;;;;;;;39.60;14.52;;;;;;;0.53;80.97;97325.19;5041260;28;20053;-71
2021/12/03 01:57:39;;;;;;;37.85;15.10;;;;;;;0.55;80.92;97329.25;5030566;28;20049;-73
2021/12/03 02:00:09;;;;;;;35.33;14.57;;;;;;;0.55;80.81;97333.81;5043188;28;20395;-72
2021/12/03 02:02:38;;;;;;;34.95;15.30;;;;;;;0.55;80.57;97325.72;5042494;28;20044;-72
2021/12/03 02:05:05;;;;;;;33.38;14.52;;;;;;;0.57;80.64;97337.03;5039512;28;20144;-71
2021/12/03 02:07:31;;;;;;;34.20;14.40;;;;;;;0.67;80.39;97345.09;5038455;28;20501;-72
2021/12/03 02:09:57;;;;;;;34.47;14.38;;;;;;;0.64;80.50;97361.78;5037630;28;20107;-71
2021/12/03 02:12:24;;;;;;;35.83;15.68;;;;;;;0.66;80.31;97342.66;5043932;28;20084;-70
2021/12/03 02:14:51;;;;;;;42.67;16.23;;;;;;;0.65;80.51;97359.88;5035992;28;20080;-71
2021/12/03 02:17:17;;;;;;;38.75;15.82;;;;;;;0.69;80.39;97336.75;5045112;28;20118;-71
2021/12/03 02:19:43;;;;;;;38.78;16.58;;;;;;;0.67;80.08;97353.16;5039664;28;20041;-70
2021/12/03 02:22:10;;;;;;;32.83;15.82;;;;;;;0.65;80.48;97354.50;5037357;28;20136;-71
2021/12/03 02:24:36;;;;;;;38.88;15.95;;;;;;;0.67;80.35;97341.59;5034039;28;20049;-71
2021/12/03 02:27:03;;;;;;;40.88;16.05;;;;;;;0.72;80.21;97344.28;5046267;28;20041;-71
2021/12/03 02:29:30;;;;;;;32.42;15.23;;;;;;;0.65;80.06;97371.47;5038688;28;20442;-71
2021/12/03 02:31:56;;;;;;;44.03;16.40;;;;;;;0.70;80.30;97354.50;5036883;28;20049;-70
2021/12/03 02:34:22;;;;;;;38.13;16.10;;;;;;;0.74;80.22;97344.00;5033929;28;20316;-71
2021/12/03 02:36:48;;;;;;;40.25;16.05;;;;;;;0.82;79.76;97359.63;5043788;28;20083;-71
2021/12/03 02:39:16;;;;;;;37.90;16.48;;;;;;;0.72;79.78;97341.59;5041167;28;20073;-71
2021/12/03 02:41:41;;;;;;;40.15;17.58;;;;;;;0.75;79.96;97351.00;5034607;28;20037;-70
2021/12/03 02:44:08;;;;;;;42.50;17.05;;;;;;;0.75;79.54;97345.63;5038007;28;20418;-71
2021/12/03 02:46:33;;;;;;;37.63;15.98;;;;;;;0.80;79.81;97337.56;5038079;28;20052;-71
2021/12/03 02:48:59;;;;;;;40.10;16.60;;;;;;;0.77;79.64;97335.38;5042381;28;20180;-70
2021/12/03 02:51:25;;;;;;;38.45;15.38;;;;;;;0.80;79.87;97319.50;5038134;28;20045;-70
2021/12/03 02:53:51;;;;;;;41.30;17.02;;;;;;;0.83;79.51;97350.47;5037756;28;20042;-70
2021/12/03 02:56:19;;;;;;;38.08;16.30;;;;;;;0.79;79.59;97344.03;5039184;28;20048;-71
2021/12/03 02:58:45;;;;;;;46.85;18.13;;;;;;;0.85;79.37;97353.69;5041601;28;20405;-69
2021/12/03 03:01:11;;;;;;;42.10;16.45;;;;;;;0.88;79.31;97352.34;5042852;28;20505;-71
2021/12/03 03:03:38;;;;;;;38.38;16.67;;;;;;;0.86;79.45;97363.38;5027095;28;20053;-71
2021/12/03 03:06:07;;;;;;;38.72;17.25;;;;;;;0.82;79.41;97381.94;5042954;28;20045;-71
2021/12/03 03:08:34;;;;;;;41.17;17.35;;;;;;;0.85;79.33;97381.38;5029115;28;20045;-70
2021/12/03 03:11:05;;;;;;;45.80;18.20;;;;;;;0.85;79.42;97384.06;5040332;28;20053;-71
2021/12/03 03:13:33;;;;;;;39.28;17.17;;;;;;;0.90;79.25;97388.66;5043134;28;20091;-69
2021/12/03 03:15:59;;;;;;;48.63;18.60;;;;;;;0.88;79.21;97369.28;5043106;28;20061;-71
2021/12/03 03:18:28;;;;;;;46.47;18.98;;;;;;;0.89;79.02;97364.72;5043846;28;20137;-71
2021/12/03 03:20:59;;;;;;;42.90;16.77;;;;;;;0.92;79.06;97381.09;5042327;28;20076;-71
2021/12/03 03:23:25;;;;;;;45.63;18.83;;;;;;;0.95;78.92;97369.81;5033612;28;20068;-72
2021/12/03 03:25:51;;;;;;;49.28;18.90;;;;;;;0.87;79.14;97378.44;5040688;28;20068;-71
2021/12/03 03:28:19;;;;;;;45.47;17.45;;;;;;;0.95;79.12;97383.28;5037344;28;20053;-71
2021/12/03 03:30:48;;;;;;;41.00;18.05;;;;;;;0.96;78.93;97401.03;5039193;28;20138;-72
2021/12/03 03:33:15;;;;;;;41.15;18.42;;;;;;;0.89;79.17;97400.50;5057898;28;20135;-72
2021/12/03 03:35:42;;;;;;;53.75;17.55;;;;;;;0.95;79.20;97391.34;5034044;28;20040;-72
2021/12/03 03:38:08;;;;;;;48.95;20.52;;;;;;;0.90;79.08;97410.19;5043565;28;20041;-71
2021/12/03 03:40:34;;;;;;;52.17;19.65;;;;;;;0.95;79.13;97401.28;5033858;28;20441;-71
2021/12/03 03:43:02;;;;;;;52.90;20.67;;;;;;;0.86;79.11;97398.34;5041129;28;20041;-71
2021/12/03 03:45:29;;;;;;;;;;;;;;;0.91;79.18;97419.06;5059832;28;20045;-70
2021/12/03 03:47:57;;;;;;;57.75;20.65;;;;;;;0.93;79.34;97408.84;5035211;28;19925;-71
2021/12/03 03:50:23;;;;;;;56.45;20.58;;;;;;;0.95;79.15;97410.19;5032893;28;20135;-69
2021/12/03 03:52:52;;;;;;;45.73;20.17;;;;;;;0.97;79.07;97405.34;5039826;28;20571;-70
2021/12/03 03:55:18;;;;;;;54.20;21.65;;;;;;;0.96;79.04;97390.28;5036083;28;20060;-71
2021/12/03 03:57:46;;;;;;;49.83;20.00;;;;;;;0.98;78.97;97390.81;5031292;28;20041;-72
2021/12/03 04:00:16;;;;;;;45.47;19.52;;;;;;;1.06;78.60;97396.72;5041869;28;20486;-71
2021/12/03 04:02:43;;;;;;;58.40;20.98;;;;;;;1.02;78.60;97390.25;5035938;28;20143;-71
2021/12/03 04:05:12;;;;;;;48.17;20.17;;;;;;;1.10;78.40;97405.88;5044518;28;20516;-71
2021/12/03 04:07:38;;;;;;;46.50;20.77;;;;;;;1.12;78.39;97404.50;5037268;28;20053;-72
2021/12/03 04:10:06;;;;;;;59.10;21.15;;;;;;;1.14;78.44;97409.63;5042637;28;20145;-71
2021/12/03 04:12:33;;;;;;;55.60;21.60;;;;;;;1.12;78.45;97422.56;5042325;28;20057;-72
2021/12/03 04:14:59;;;;;;;56.25;23.20;;;;;;;1.15;78.36;97422.00;5043327;28;20552;-72
2021/12/03 04:17:25;;;;;;;53.53;21.73;;;;;;;1.20;78.37;97416.59;5038519;28;20423;-72
2021/12/03 04:19:51;;;;;;;54.97;20.98;;;;;;;1.14;78.23;97417.72;5033667;28;20490;-71
2021/12/03 04:22:23;;;;;;;49.20;21.83;;;;;;;1.08;78.34;97414.22;5051234;28;20055;-72
2021/12/03 04:24:49;;;;;;;42.75;18.75;;;;;;;1.04;78.31;97445.44;5037675;28;20508;-71
2021/12/03 04:27:15;;;;;;;46.83;21.10;;;;;;;1.12;78.11;97434.13;5039797;28;20052;-72
2021/12/03 04:29:41;;;;;;;54.63;20.50;;;;;;;1.10;78.22;97430.09;5041333;28;20060;-71
2021/12/03 04:32:08;;;;;;;51.55;20.77;;;;;;;1.08;78.17;97437.59;5037371;28;20049;-71
2021/12/03 04:34:34;;;;;;;62.85;21.63;;;;;;;1.07;78.12;97454.84;5041168;28;20057;-70
2021/12/03 04:37:00;;;;;;;56.42;21.00;;;;;;;1.04;78.14;97444.63;5024760;28;20072;-71
2021/12/03 04:39:27;;;;;;;49.55;21.92;;;;;;;1.03;78.11;97438.44;5042384;28;20106;-71
2021/12/03 04:41:53;;;;;;;46.95;20.67;;;;;;;1.13;77.77;97440.31;5046242;28;20135;-70
2021/12/03 04:44:19;;;;;;;53.03;21.00;;;;;;;1.12;77.54;97452.16;5039502;28;20478;-71
2021/12/03 04:46:45;;;;;;;51.70;20.45;;;;;;;1.09;77.45;97437.34;5037461;28;20041;-71
2021/12/03 04:49:11;;;;;;;48.83;19.90;;;;;;;1.01;77.58;97443.25;5035631;28;20121;-71
2021/12/03 04:51:37;;;;;;;48.63;19.77;;;;;;;1.07;77.61;97450.28;5037691;28;20049;-72
2021/12/03 04:54:03;;;;;;;52.40;20.05;;;;;;;1.03;77.42;97445.69;5037420;28;20057;-71
2021/12/03 04:56:30;;;;;;;52.67;21.27;;;;;;;1.11;77.38;97447.88;5043904;28;20099;-71
2021/12/03 04:58:56;;;;;;;57.55;22.15;;;;;;;1.11;77.37;97453.25;5037039;28;20119;-72
2021/12/03 05:01:22;;;;;;;52.38;19.92;;;;;;;1.08;77.43;97473.44;5038750;28;20084;-70
2021/12/03 05:03:48;;;;;;;48.53;20.15;;;;;;;1.13;77.61;97459.16;5039258;28;20140;-72
2021/12/03 05:06:17;;;;;;;55.42;19.88;;;;;;;1.12;77.40;97476.38;5061260;28;20131;-72
2021/12/03 05:08:43;;;;;;;47.78;20.83;;;;;;;1.14;77.37;97450.00;5036752;28;20052;-72
2021/12/03 05:11:09;;;;;;;48.83;19.67;;;;;;;1.03;77.79;97461.84;5037828;28;20048;-74
2021/12/03 05:13:38;;;;;;;44.78;19.55;;;;;;;1.08;77.58;97481.50;5039880;28;20520;-72
2021/12/03 05:16:04;;;;;;;49.15;20.90;;;;;;;1.09;77.54;97496.56;5042866;28;20523;-72
2021/12/03 05:18:31;;;;;;;60.93;21.50;;;;;;;1.02;77.60;97487.97;5060128;28;20048;-72
2021/12/03 05:21:00;;;;;;;50.60;20.20;;;;;;;1.13;77.37;97500.34;5044006;28;20610;-73
2021/12/03 05:23:28;;;;;;;54.78;20.27;;;;;;;1.12;77.60;97508.69;5041819;28;20045;-72
2021/12/03 05:25:54;;;;;;;52.47;21.02;;;;;;;1.15;77.36;97491.19;5041257;28;20038;-70
2021/12/03 05:28:21;;;;;;;52.88;21.55;;;;;;;1.05;77.51;97508.97;5036029;28;20422;-71
2021/12/03 05:30:48;;;;;;;53.53;20.20;;;;;;;1.07;77.44;97516.75;5039655;28;20056;-70
2021/12/03 05:33:15;;;;;;;52.20;20.20;;;;;;;1.10;77.29;97503.56;5042476;28;20041;-71
2021/12/03 05:35:42;;;;;;;51.13;20.58;;;;;;;1.02;77.48;97514.88;5046224;28;20237;-70
2021/12/03 05:38:08;;;;;;;52.08;19.58;;;;;;;1.10;77.29;97503.56;5033964;28;20044;-71
2021/12/03 05:40:34;;;;;;;50.25;20.10;;;;;;;1.16;77.18;97496.31;5048050;28;20049;-70
2021/12/03 05:43:00;;;;;;;51.60;20.35;;;;;;;1.16;77.09;97504.38;5040769;28;20044;-70
2021/12/03 05:45:30;;;;;;;63.63;19.40;;;;;;;1.11;77.00;97518.63;5046877;28;20056;-69
2021/12/03 05:47:58;;;;;;;47.63;19.77;;;;;;;1.15;77.11;97521.59;5053899;28;20064;-71
2021/12/03 05:50:24;;;;;;;41.85;19.02;;;;;;;1.16;77.08;97535.88;5046382;28;20040;-71
2021/12/03 05:52:51;;;;;;;47.15;19.30;;;;;;;1.15;77.20;97534.25;5037164;28;20567;-70
2021/12/03 05:55:18;;;;;;;49.55;20.65;;;;;;;1.17;76.69;97538.28;5038418;28;20061;-71
2021/12/03 05:57:45;;;;;;;48.80;20.00;;;;;;;1.16;76.95;97538.56;5040251;28;20422;-71
2021/12/03 06:00:15;;;;;;;48.30;20.15;;;;;;;1.29;76.66;97531.84;5044320;28;20040;-71
2021/12/03 06:02:41;;;;;;;43.85;18.70;;;;;;;1.22;76.70;97538.28;5046518;28;20498;-71
2021/12/03 06:05:09;;;;;;;55.83;20.13;;;;;;;1.23;76.76;97542.59;5042035;28;20057;-70
2021/12/03 06:07:35;;;;;;;46.35;22.08;;;;;;;1.22;76.87;97553.66;5040164;28;20075;-71
2021/12/03 06:10:02;;;;;;;50.97;20.23;;;;;;;1.29;76.64;97554.19;5042375;28;20064;-70
2021/12/03 06:12:29;;;;;;;46.90;20.77;;;;;;;1.21;76.70;97546.66;5040372;28;20036;-70
2021/12/03 06:14:55;;;;;;;52.67;20.05;;;;;;;1.27;76.63;97553.66;5055112;28;20049;-71
2021/12/03 06:17:21;;;;;;;55.08;21.20;;;;;;;1.29;76.69;97550.69;5034055;28;20148;-70
2021/12/03 06:19:48;;;;;;;50.53;21.17;;;;;;;1.25;76.63;97528.88;5038970;28;20045;-71
2021/12/03 06:22:15;;;;;;;47.28;20.35;;;;;;;1.31;76.66;97537.75;5043894;28;20050;-70
2021/12/03 06:24:41;;;;;;;49.67;20.15;;;;;;;1.26;76.53;97549.34;5039658;28;20049;-71
2021/12/03 06:27:08;;;;;;;51.63;20.15;;;;;;;1.26;76.79;97549.34;5039204;28;20046;-71
2021/12/03 06:29:34;;;;;;;53.40;21.00;;;;;;;1.26;76.77;97547.47;5040515;28;20076;-71
2021/12/03 06:32:00;;;;;;;60.92;22.02;;;;;;;1.28;76.29;97568.72;5042642;28;20037;-71
2021/12/03 06:34:26;;;;;;;67.75;23.25;;;;;;;1.27;76.78;97550.94;5038906;28;20041;-71
2021/12/03 06:36:52;;;;;;;52.05;21.17;;;;;;;1.32;76.78;97552.84;5040157;28;20068;-71
2021/12/03 06:39:20;;;;;;;53.42;22.02;;;;;;;1.27;76.67;97561.72;5045886;28;20045;-71
2021/12/03 06:41:46;;;;;;;52.00;21.60;;;;;;;1.33;76.72;97566.06;5051487;28;20060;-71
2021/12/03 06:44:13;;;;;;;54.65;20.50;;;;;;;1.36;76.58;97553.91;5050976;28;20055;-71
2021/12/03 06:46:39;;;;;;;54.42;21.95;;;;;;;1.38;76.53;97568.72;5037926;28;20076;-71
2021/12/03 06:49:05;;;;;;;51.40;22.27;;;;;;;1.38;76.45;97578.69;5036587;28;20053;-70
2021/12/03 06:51:31;;;;;;;59.47;22.33;;;;;;;1.49;76.42;97579.50;5046961;28;20103;-73
2021/12/03 06:54:01;;;;;;;56.17;22.00;;;;;;;1.46;76.24;97590.81;5050049;28;20045;-70
2021/12/03 06:56:43;;;;;;;49.45;22.02;;;;;;;1.38;76.10;97598.34;5045659;28;20049;-70
2021/12/03 06:59:09;;;;;;;42.25;19.63;;;;;;;1.36;76.42;97611.28;5048672;28;20509;-69
2021/12/03 07:01:35;;;;;;;55.00;21.02;;;;;;;1.34;76.49;97593.78;5048051;28;20634;-71
2021/12/03 07:04:01;;;;;;;58.67;21.40;;;;;;;1.40;76.29;97600.75;5048299;28;20056;-69
2021/12/03 07:06:27;;;;;;;47.63;20.88;;;;;;;1.42;76.04;97617.50;5053637;28;20049;-70
2021/12/03 07:08:53;;;;;;;47.13;19.17;;;;;;;1.43;75.97;97613.72;5053419;28;20524;-69
2021/12/03 07:11:20;;;;;;;48.35;18.83;;;;;;;1.41;75.91;97605.09;5046054;28;20395;-71
2021/12/03 07:13:48;;;;;;;50.63;20.58;;;;;;;1.45;75.63;97603.47;5047838;28;20040;-72
2021/12/03 07:16:14;;;;;;;45.35;19.25;;;;;;;1.38;75.95;97619.91;5043038;28;20047;-71
2021/12/03 07:18:42;;;;;;;48.97;20.45;;;;;;;1.38;75.96;97629.84;5047404;28;20052;-71
2021/12/03 07:21:08;;;;;;;51.47;20.95;;;;;;;1.35;76.01;97598.91;5049437;28;20460;-72
2021/12/03 07:23:34;;;;;;;50.40;20.23;;;;;;;1.33;76.06;97611.00;5049233;28;20045;-72
2021/12/03 07:26:02;;;;;;;55.45;20.90;;;;;;;1.43;75.97;97586.78;5042230;28;20053;-71
2021/12/03 07:28:28;;;;;;;49.55;20.23;;;;;;;1.54;75.49;97601.06;5044837;28;20128;-73
2021/12/03 07:30:55;;;;;;;53.38;20.35;;;;;;;1.61;75.31;97603.47;5046189;28;20141;-71
2021/12/03 07:33:22;;;;;;;52.58;21.33;;;;;;;1.55;75.42;97595.38;5028938;28;20421;-71
2021/12/03 07:35:48;;;;;;;59.20;21.60;;;;;;;1.53;75.29;97608.31;5044161;28;20049;-71
2021/12/03 07:38:17;;;;;;;44.58;20.75;;;;;;;1.42;75.67;97625.56;5040223;28;20080;-72
2021/12/03 07:40:43;;;;;;;48.38;19.63;;;;;;;1.50;75.50;97616.94;5034312;28;20066;-72
2021/12/03 07:43:09;;;;;;;50.50;20.80;;;;;;;1.57;75.27;97632.03;5033260;28;20053;-72
2021/12/03 07:45:36;;;;;;;50.92;20.80;;;;;;;1.51;75.21;97629.31;5037677;28;20095;-71
2021/12/03 07:48:04;;;;;;;48.05;19.52;;;;;;;1.51;75.47;97640.09;5046140;28;20475;-72
2021/12/03 07:50:34;;;;;;;46.40;20.10;;;;;;;1.50;75.25;97651.97;5037979;28;20132;-72
2021/12/03 07:53:00;;;;;;;40.80;19.10;;;;;;;1.50;75.33;97665.41;5032030;28;20057;-73
2021/12/03 07:55:26;;;;;;;57.25;19.88;;;;;;;1.53;75.39;97629.88;5039848;28;20041;-72
2021/12/03 07:57:52;;;;;;;50.58;20.42;;;;;;;1.50;75.04;97633.09;5038112;28;20045;-72
2021/12/03 08:00:25;;;;;;;52.38;19.63;;;;;;;1.51;74.99;97650.88;5043772;28;20045;-73
2021/12/03 08:02:53;;;;;;;51.63;19.23;;;;;;;1.55;74.71;97649.25;5034297;28;20045;-73
2021/12/03 08:05:20;;;;;;;42.38;18.48;;;;;;;1.58;74.79;97620.97;5042886;28;20143;-72
2021/12/03 08:07:47;;;;;;;43.20;18.25;;;;;;;1.56;74.54;97663.53;5041905;28;20045;-73
2021/12/03 08:10:14;;;;;;;45.90;19.67;;;;;;;1.57;74.50;97649.00;5033304;28;20139;-73
2021/12/03 08:12:41;;;;;;;53.50;18.50;;;;;;;1.58;74.28;97653.31;5041794;28;20064;-73
2021/12/03 08:15:07;;;;;;;40.42;18.05;;;;;;;1.59;74.29;97646.06;5030218;28;20322;-72
2021/12/03 08:17:33;;;;;;;53.22;18.92;;;;;;;1.50;74.51;97648.47;5034479;28;20071;-72
2021/12/03 08:20:00;;;;;;;47.78;19.15;;;;;;;1.57;74.39;97640.13;5044135;28;20132;-72
2021/12/03 08:22:28;;;;;;;49.08;19.00;;;;;;;1.61;74.34;97655.47;5033479;28;20164;-73
2021/12/03 08:24:54;;;;;;;43.88;19.27;;;;;;;1.66;73.98;97651.97;5030118;28;20537;-72
2021/12/03 08:27:20;;;;;;;42.05;18.70;;;;;;;1.67;73.46;97632.03;5031990;28;20049;-72
2021/12/03 08:29:46;;;;;;;40.28;17.13;;;;;;;1.72;73.57;97626.66;5052973;28;20041;-70
2021/12/03 08:32:13;;;;;;;41.33;16.92;;;;;;;1.72;73.41;97637.44;5043829;28;20045;-72
2021/12/03 08:34:39;;;;;;;49.85;18.20;;;;;;;1.70;73.30;97628.78;5044640;28;20056;-72
2021/12/03 08:37:07;;;;;;;40.60;17.67;;;;;;;1.69;72.92;97640.66;5042698;28;20057;-70
2021/12/03 08:39:35;;;;;;;39.90;16.95;;;;;;;1.76;73.17;97659.25;5046359;28;20052;-71
2021/12/03 08:42:03;;;;;;;43.60;16.95;;;;;;;1.75;72.69;97663.84;5052298;28;20068;-71
2021/12/03 08:44:30;;;;;;;36.75;15.85;;;;;;;1.79;72.59;97651.44;5059474;28;20053;-71
2021/12/03 08:47:02;;;;;;;42.35;16.45;;;;;;;1.86;72.13;97656.56;5047696;28;20452;-70
2021/12/03 08:49:31;;;;;;;43.65;17.13;;;;;;;1.85;71.83;97649.56;5038404;28;20539;-71
2021/12/03 08:57:14;;;;;;;41.10;16.25;;;;;;;1.97;71.58;97657.34;5059292;28;20425;-69
2021/12/03 08:59:40;;;;;;;40.05;14.82;;;;;;;1.98;71.41;97658.97;5040572;28;20076;-73
2021/12/03 09:02:06;;;;;;;39.13;14.60;;;;;;;1.94;71.44;97666.00;5044227;28;20041;-72
2021/12/03 09:04:32;;;;;;;44.90;16.05;;;;;;;2.00;71.12;97683.75;5049005;28;20406;-72
2021/12/03 09:06:59;;;;;;;37.38;16.30;;;;;;;1.95;71.31;97675.69;5050123;28;20081;-73
2021/12/03 09:09:26;;;;;;;37.22;15.45;;;;;;;1.94;71.09;97664.09;5054234;28;20055;-70
2021/12/03 09:11:53;;;;;;;40.55;14.93;;;;;;;1.91;71.47;97666.53;5040869;28;20409;-72
2021/12/03 09:14:57;;;;;;;40.13;15.38;;;;;;;1.89;71.40;97680.25;5037670;28;20401;-71
2021/12/03 09:22:49;;;;;;;37.10;16.05;;;;;;;1.88;71.75;97665.19;5034476;28;20541;-72
2021/12/03 09:25:22;;;;;;;37.58;15.35;;;;;;;1.93;71.85;97667.06;5035169;28;20391;-70
2021/12/03 09:27:48;;;;;;;37.55;16.25;;;;;;;1.96;71.63;97675.44;5039205;28;20429;-71
2021/12/03 09:30:17;;;;;;;41.03;15.95;;;;;;;1.88;71.64;97673.25;5043160;28;20044;-69
2021/12/03 09:32:48;;;;;;;36.38;16.98;;;;;;;1.94;71.79;97690.25;5042037;28;20046;-71
2021/12/03 09:35:15;;;;;;;47.13;17.75;;;;;;;1.95;71.72;97676.50;5046351;28;20046;-69
2021/12/03 09:37:40;;;;;;;40.33;16.77;;;;;;;1.93;71.79;97654.38;5036439;28;20399;-71
2021/12/03 09:40:09;;;;;;;49.78;18.75;;;;;;;2.00;71.70;97653.31;5042586;28;20560;-71
2021/12/03 09:42:38;;;;;;;47.00;19.70;;;;;;;1.98;71.65;97656.28;5041714;28;20099;-68
2021/12/03 09:45:05;;;;;;;42.70;18.55;;;;;;;2.00;71.82;97666.78;5039668;28;20056;-73
2021/12/03 09:47:33;;;;;;;54.30;19.67;;;;;;;1.97;71.93;97644.69;5041496;28;20497;-75
2021/12/03 09:50:01;;;;;;;50.67;19.65;;;;;;;1.90;71.98;97654.13;5055660;28;20052;-75
2021/12/03 09:52:43;;;;;;;55.53;19.88;;;;;;;1.96;72.16;97655.75;5056974;28;20041;-74
2021/12/03 09:55:14;;;;;;;41.05;18.45;;;;;;;1.94;72.04;97664.09;5045228;28;20099;-74
2021/12/03 09:57:46;;;;;;;49.00;18.25;;;;;;;1.95;72.15;97668.41;5036289;28;20427;-75
2021/12/03 10:00:22;;;;;;;40.15;18.67;;;;;;;1.93;72.21;97673.25;5036099;28;20050;-74
2021/12/03 10:13:12;;;;;;;44.05;17.10;;;;;;;1.95;71.90;97681.06;5033162;28;20053;-75
2021/12/03 10:15:53;;;;;;;44.83;16.77;;;;;;;1.95;71.99;97671.13;5048236;28;20049;-73
2021/12/03 10:18:41;;;;;;;42.17;16.52;;;;;;;1.93;71.88;97670.56;5053293;28;20139;-75
2021/12/03 10:29:32;;;;;;;39.70;17.35;;;;;;;1.93;71.96;97667.84;5048228;28;20158;-75
2021/12/03 10:38:03;;;;;;;60.33;23.65;;;;;;;1.91;72.06;97653.06;5072297;28;20041;-75
2021/12/03 10:43:51;;;;;;;65.82;25.30;;;;;;;1.93;71.98;97645.50;5037107;28;20247;-75
2021/12/03 10:46:25;;;;;;;66.55;25.52;;;;;;;1.99;71.75;97644.41;5046377;28;20049;-75
2021/12/03 11:02:55;;;;;;;49.28;20.00;;;;;;;1.92;71.99;97660.84;5049270;28;20049;-76
2021/12/03 11:08:07;;;;;;;47.13;19.67;;;;;;;1.83;72.53;97663.28;5041629;28;20037;-76
2021/12/03 11:16:44;;;;;;;47.53;17.88;;;;;;;1.88;72.32;97683.25;5050884;28;20060;-77
2021/12/03 12:22:50;;;;;;;38.65;16.38;;;;;;;1.80;71.76;97671.91;5053474;28;20064;-77
2021/12/03 12:34:34;;;;;;;45.22;16.77;;;;;;;1.73;72.01;97638.22;5040274;28;20120;-76
2021/12/03 13:19:27;;;;;;;53.17;21.63;;;;;;;1.82;72.23;97596.19;5031835;28;20095;-74
2021/12/03 13:28:22;;;;;;;64.28;25.45;;;;;;;1.91;71.90;97599.16;5053330;28;20579;-73
2021/12/03 14:00:37;;;;;;;63.88;22.58;;;;;;;1.91;71.96;97573.00;5022964;28;20055;-70
2021/12/03 14:35:47;;;;;;;49.88;19.77;;;;;;;1.69;74.26;97584.06;5016270;28;20076;-68
2021/12/03 14:40:36;;;;;;;51.40;21.80;;;;;;;1.60;74.96;97588.41;5057314;28;20139;-69
2021/12/03 14:57:15;;;;;;;50.92;21.10;;;;;;;1.50;75.78;97562.28;5046309;28;20049;-69
2021/12/03 14:59:59;;;;;;;50.00;20.00;;;;;;;1.43;76.08;97554.47;5039004;28;20049;-70
2021/12/03 16:08:17;;;;;;;63.05;27.20;;;;;;;1.47;76.65;97496.28;5037936;28;20563;-67
2021/12/03 16:10:53;;;;;;;63.30;25.98;;;;;;;1.48;76.71;97495.19;5035912;28;20061;-68
2021/12/03 16:18:57;;;;;;;54.40;23.42;;;;;;;1.38;77.24;97487.13;5034054;28;20191;-67
2021/12/03 16:26:32;;;;;;;50.72;23.85;;;;;;;1.45;77.14;97484.97;5041635;28;20083;-68
2021/12/03 16:54:05;;;;;;;55.97;23.98;;;;;;;1.39;77.36;97449.16;5043244;28;20053;-69
2021/12/03 16:56:56;;;;;;;55.88;23.52;;;;;;;1.31;77.26;97421.97;5036930;28;20099;-69
2021/12/03 16:59:47;;;;;;;53.35;23.02;;;;;;;1.09;77.34;97396.16;5013759;28;20060;-69
2021/12/03 17:02:26;;;;;;;53.42;21.27;;;;;;;1.32;77.28;97428.97;5037342;28;20056;-69
2021/12/03 17:05:26;;;;;;;51.00;23.23;;;;;;;1.25;77.71;97419.31;5044728;28;20107;-69
2021/12/03 17:13:53;;;;;;;60.08;24.60;;;;;;;1.34;77.66;97437.59;5041309;28;20057;-72
2021/12/03 17:22:21;;;;;;;68.28;26.67;;;;;;;1.35;77.53;97423.03;5047717;28;20150;-70
2021/12/03 17:47:27;;;;;;;60.50;25.55;;;;;;;1.80;75.52;97418.59;4943103;28;20119;-68
2021/12/03 17:58:28;;;;;;;58.63;25.58;;;;;;;1.76;75.99;97409.47;4915325;29;20533;-68
2021/12/03 18:01:04;;;;;;;63.33;26.15;;;;;;;1.77;75.90;97408.38;4927146;29;20067;-69
2021/12/03 18:12:06;;;;;;;54.25;22.75;;;;;;;1.82;75.72;97404.88;4965924;28;20527;-70
2021/12/03 18:55:14;;;;;;;44.20;17.88;;;;;;;1.80;74.69;97410.53;4973339;28;20887;-69
2021/12/03 18:57:44;;;;;;;48.38;20.08;;;;;;;2.01;74.84;97437.38;4988584;28;20070;-71
2021/12/03 19:00:14;;;;;;;47.67;18.85;;;;;;;2.01;74.49;97426.59;4982784;28;20562;-69
2021/12/03 19:02:44;;;;;;;45.20;19.58;;;;;;;2.10;74.47;97448.38;4988624;28;20059;-68
2021/12/03 19:07:46;;;;;;;38.35;15.68;;;;;;;2.10;74.41;97467.25;4972735;28;20423;-69